EJU82RL LFPO-LGRP
Flight info
| Callsign | EJU82RL |
|---|---|
| Flight time | 3h 14m |
| Altitude | 35000 |
| Route | BUBLI DCT LUVAL DCT BEGAR DCT TRA DCT GAMSA DCT GEDSO DCT VEKEN DCT NEMEK DCT NAVSU DCT SOLGU DCT RUDAR DCT OSLUD DCT BUNEX DCT MODRA DCT MEDUX UM867 KOGAT DCT ERANA DCT TSL DCT MES UN139 LURUS UL995 CODIC |
| Aircraft | A320/M-SDE2E3FGHIJ1RWXYZ/LB1 |
Departure
| Time | 2026-05-05 19:26 |
|---|---|
| Airport | Paris-Orly Airport (LFPO) |
Arrival
| Time | 2026-05-05 22:41 |
|---|---|
| Airport | Rhodes International Airport "Diagoras" (LGRP) |
| Time | Latitude | Longitude | Altitude | Speed | Heading |
|---|---|---|---|---|---|
| 2026-05-05 18:42 | 48.72980 | 2.35791 | 292 ft | 0 kts | 158° |
| 2026-05-05 19:14 | 48.72988 | 2.35786 | 291 ft | 4 kts | 158° |
| 2026-05-05 19:14 | 48.73013 | 2.35771 | 291 ft | 4 kts | 158° |
| 2026-05-05 19:14 | 48.73038 | 2.35756 | 291 ft | 4 kts | 158° |
| 2026-05-05 19:14 | 48.73058 | 2.35744 | 291 ft | 3 kts | 158° |
| 2026-05-05 19:15 | 48.73082 | 2.35734 | 291 ft | 4 kts | 192° |
| 2026-05-05 19:15 | 48.73099 | 2.35753 | 291 ft | 4 kts | 237° |
| 2026-05-05 19:15 | 48.73104 | 2.35764 | 291 ft | 0 kts | 237° |
| 2026-05-05 19:18 | 48.73091 | 2.35734 | 291 ft | 8 kts | 237° |
| 2026-05-05 19:18 | 48.73064 | 2.35649 | 291 ft | 9 kts | 261° |
| 2026-05-05 19:18 | 48.73106 | 2.35594 | 291 ft | 8 kts | 309° |
| 2026-05-05 19:19 | 48.73088 | 2.35525 | 291 ft | 8 kts | 238° |
| 2026-05-05 19:19 | 48.73042 | 2.35425 | 291 ft | 14 kts | 224° |
| 2026-05-05 19:19 | 48.72953 | 2.35358 | 291 ft | 15 kts | 198° |
| 2026-05-05 19:19 | 48.72854 | 2.35308 | 291 ft | 16 kts | 199° |
| 2026-05-05 19:20 | 48.72745 | 2.35256 | 291 ft | 17 kts | 191° |
| 2026-05-05 19:20 | 48.72633 | 2.35284 | 291 ft | 16 kts | 165° |
| 2026-05-05 19:20 | 48.72528 | 2.35327 | 291 ft | 14 kts | 165° |
| 2026-05-05 19:20 | 48.72434 | 2.35368 | 291 ft | 14 kts | 160° |
| 2026-05-05 19:21 | 48.72348 | 2.35441 | 293 ft | 14 kts | 134° |
| 2026-05-05 19:21 | 48.72294 | 2.35565 | 291 ft | 14 kts | 154° |
| 2026-05-05 19:21 | 48.72202 | 2.35611 | 295 ft | 14 kts | 167° |
| 2026-05-05 19:21 | 48.72114 | 2.35648 | 291 ft | 5 kts | 160° |
| 2026-05-05 19:22 | 48.72097 | 2.35648 | 291 ft | 5 kts | 194° |
| 2026-05-05 19:22 | 48.72082 | 2.35582 | 296 ft | 7 kts | 275° |
| 2026-05-05 19:22 | 48.72105 | 2.35536 | 293 ft | 4 kts | 330° |
| 2026-05-05 19:22 | 48.72128 | 2.35524 | 291 ft | 3 kts | 342° |
| 2026-05-05 19:23 | 48.72136 | 2.35521 | 291 ft | 0 kts | 342° |
| 2026-05-05 19:24 | 48.72149 | 2.35520 | 291 ft | 7 kts | 2° |
| 2026-05-05 19:24 | 48.72164 | 2.35599 | 294 ft | 10 kts | 114° |
| 2026-05-05 19:24 | 48.72100 | 2.35655 | 295 ft | 12 kts | 156° |
| 2026-05-05 19:24 | 48.72033 | 2.35743 | 295 ft | 14 kts | 124° |
| 2026-05-05 19:25 | 48.71982 | 2.35883 | 291 ft | 16 kts | 118° |
| 2026-05-05 19:25 | 48.71960 | 2.35962 | 292 ft | 0 kts | 82° |
| 2026-05-05 19:25 | 48.71960 | 2.35964 | 292 ft | 2 kts | 82° |
| 2026-05-05 19:25 | 48.72040 | 2.36391 | 295 ft | 78 kts | 75° |
| 2026-05-05 19:26 | 48.72241 | 2.37479 | 290 ft | 135 kts | 74° |
| 2026-05-05 19:26 | 48.72528 | 2.39070 | 360 ft | 172 kts | 75° |
| 2026-05-05 19:26 | 48.72835 | 2.40807 | 1026 ft | 170 kts | 74° |
| 2026-05-05 19:26 | 48.72933 | 2.41364 | 1265 ft | 170 kts | 74° |
| 2026-05-05 19:27 | 48.73144 | 2.42548 | 1702 ft | 172 kts | 74° |
| 2026-05-05 19:27 | 48.73467 | 2.44304 | 2353 ft | 173 kts | 75° |
| 2026-05-05 19:27 | 48.73798 | 2.46064 | 2893 ft | 174 kts | 72° |
| 2026-05-05 19:27 | 48.74039 | 2.47863 | 3416 ft | 177 kts | 87° |
| 2026-05-05 19:28 | 48.74085 | 2.49773 | 3772 ft | 190 kts | 87° |
| 2026-05-05 19:28 | 48.74158 | 2.51892 | 3943 ft | 213 kts | 86° |
| 2026-05-05 19:28 | 48.74247 | 2.54242 | 4134 ft | 233 kts | 86° |
| 2026-05-05 19:28 | 48.74387 | 2.56819 | 4354 ft | 258 kts | 83° |
| 2026-05-05 19:29 | 48.74602 | 2.59582 | 4847 ft | 273 kts | 82° |
| 2026-05-05 19:29 | 48.74861 | 2.62454 | 5584 ft | 277 kts | 81° |
| 2026-05-05 19:29 | 48.75154 | 2.65399 | 6346 ft | 282 kts | 81° |
| 2026-05-05 19:29 | 48.75461 | 2.68354 | 7101 ft | 285 kts | 81° |
| 2026-05-05 19:30 | 48.75773 | 2.71340 | 7843 ft | 289 kts | 81° |
| 2026-05-05 19:30 | 48.76080 | 2.74323 | 8552 ft | 292 kts | 81° |
| 2026-05-05 19:30 | 48.76392 | 2.77392 | 9255 ft | 296 kts | 82° |
| 2026-05-05 19:30 | 48.76709 | 2.80537 | 9974 ft | 300 kts | 82° |
| 2026-05-05 19:31 | 48.77029 | 2.83725 | 10242 ft | 321 kts | 82° |
| 2026-05-05 19:31 | 48.77381 | 2.87234 | 10454 ft | 342 kts | 82° |
| 2026-05-05 19:31 | 48.77739 | 2.90788 | 10985 ft | 350 kts | 82° |
| 2026-05-05 19:31 | 48.78107 | 2.94453 | 11638 ft | 353 kts | 82° |
| 2026-05-05 19:32 | 48.78475 | 2.98157 | 12302 ft | 357 kts | 83° |
| 2026-05-05 19:32 | 48.78846 | 3.01896 | 12950 ft | 360 kts | 83° |
| 2026-05-05 19:32 | 48.79217 | 3.05654 | 13579 ft | 363 kts | 83° |
| 2026-05-05 19:32 | 48.79590 | 3.09458 | 14179 ft | 366 kts | 83° |
| 2026-05-05 19:33 | 48.79964 | 3.13290 | 14775 ft | 369 kts | 83° |
| 2026-05-05 19:33 | 48.80343 | 3.17151 | 15357 ft | 372 kts | 83° |
| 2026-05-05 19:33 | 48.80725 | 3.21041 | 15923 ft | 375 kts | 83° |
| 2026-05-05 19:33 | 48.81107 | 3.24970 | 16493 ft | 378 kts | 83° |
| 2026-05-05 19:34 | 48.81488 | 3.28920 | 17029 ft | 380 kts | 83° |
| 2026-05-05 19:34 | 48.81868 | 3.32908 | 17553 ft | 383 kts | 84° |
| 2026-05-05 19:34 | 48.82168 | 3.36933 | 18058 ft | 385 kts | 90° |
| 2026-05-05 19:35 | 48.81776 | 3.45035 | 19077 ft | 387 kts | 98° |
| 2026-05-05 19:35 | 48.81245 | 3.49020 | 19561 ft | 386 kts | 112° |
| 2026-05-05 19:35 | 48.80176 | 3.52751 | 20049 ft | 386 kts | 116° |
| 2026-05-05 19:35 | 48.79058 | 3.56471 | 20528 ft | 388 kts | 116° |
| 2026-05-05 19:36 | 48.77929 | 3.60194 | 20995 ft | 390 kts | 116° |
| 2026-05-05 19:36 | 48.76788 | 3.63935 | 21450 ft | 392 kts | 116° |
| 2026-05-05 19:36 | 48.75641 | 3.67695 | 21891 ft | 394 kts | 116° |
| 2026-05-05 19:36 | 48.74491 | 3.71471 | 22311 ft | 396 kts | 116° |
| 2026-05-05 19:37 | 48.73331 | 3.75271 | 22729 ft | 398 kts | 116° |
| 2026-05-05 19:37 | 48.72164 | 3.79082 | 23145 ft | 400 kts | 116° |
| 2026-05-05 19:37 | 48.70991 | 3.82914 | 23552 ft | 402 kts | 116° |
| 2026-05-05 19:37 | 48.69814 | 3.86759 | 23945 ft | 404 kts | 116° |
| 2026-05-05 19:38 | 48.68631 | 3.90622 | 24332 ft | 406 kts | 116° |
| 2026-05-05 19:38 | 48.67442 | 3.94507 | 24704 ft | 407 kts | 116° |
| 2026-05-05 19:38 | 48.66249 | 3.98399 | 25077 ft | 409 kts | 116° |
| 2026-05-05 19:38 | 48.65046 | 4.02317 | 25426 ft | 411 kts | 116° |
| 2026-05-05 19:39 | 48.63837 | 4.06240 | 25769 ft | 413 kts | 116° |
| 2026-05-05 19:39 | 48.62618 | 4.10186 | 26117 ft | 415 kts | 116° |
| 2026-05-05 19:39 | 48.61395 | 4.14139 | 26464 ft | 416 kts | 116° |
| 2026-05-05 19:39 | 48.60180 | 4.18047 | 26783 ft | 418 kts | 116° |
| 2026-05-05 19:40 | 48.58939 | 4.22026 | 27098 ft | 420 kts | 116° |
| 2026-05-05 19:40 | 48.57696 | 4.26024 | 27431 ft | 421 kts | 116° |
| 2026-05-05 19:40 | 48.56450 | 4.30040 | 27757 ft | 423 kts | 116° |
| 2026-05-05 19:40 | 48.55198 | 4.34061 | 28073 ft | 424 kts | 117° |
| 2026-05-05 19:41 | 48.53939 | 4.38094 | 28371 ft | 426 kts | 117° |
| 2026-05-05 19:41 | 48.52670 | 4.42139 | 28658 ft | 427 kts | 117° |
| 2026-05-05 19:41 | 48.51398 | 4.46191 | 28941 ft | 428 kts | 117° |
| 2026-05-05 19:41 | 48.50121 | 4.50257 | 29203 ft | 430 kts | 117° |
| 2026-05-05 19:42 | 48.48838 | 4.54333 | 29453 ft | 431 kts | 117° |
| 2026-05-05 19:42 | 48.47548 | 4.58431 | 29713 ft | 433 kts | 117° |
| 2026-05-05 19:42 | 48.46257 | 4.62522 | 29970 ft | 434 kts | 117° |
| 2026-05-05 19:42 | 48.44957 | 4.66631 | 30283 ft | 433 kts | 117° |
| 2026-05-05 19:43 | 48.43662 | 4.70716 | 30619 ft | 432 kts | 117° |
| 2026-05-05 19:43 | 48.42366 | 4.74793 | 30930 ft | 431 kts | 117° |
| 2026-05-05 19:43 | 48.41072 | 4.78857 | 31204 ft | 431 kts | 117° |
| 2026-05-05 19:43 | 48.39775 | 4.82930 | 31473 ft | 432 kts | 117° |
| 2026-05-05 19:44 | 48.38477 | 4.87004 | 31744 ft | 432 kts | 117° |
| 2026-05-05 19:44 | 48.37179 | 4.91077 | 32008 ft | 432 kts | 117° |
| 2026-05-05 19:44 | 48.35877 | 4.95153 | 32277 ft | 432 kts | 118° |
| 2026-05-05 19:44 | 48.34576 | 4.99225 | 32537 ft | 432 kts | 118° |
| 2026-05-05 19:45 | 48.33270 | 5.03300 | 32791 ft | 433 kts | 118° |
| 2026-05-05 19:45 | 48.31964 | 5.07368 | 33050 ft | 432 kts | 118° |
| 2026-05-05 19:45 | 48.30656 | 5.11436 | 33297 ft | 433 kts | 118° |
| 2026-05-05 19:45 | 48.29470 | 5.15593 | 33536 ft | 435 kts | 111° |
| 2026-05-05 19:46 | 48.28696 | 5.20005 | 33752 ft | 438 kts | 105° |
| 2026-05-05 19:46 | 48.28045 | 5.24473 | 33967 ft | 439 kts | 105° |
| 2026-05-05 19:46 | 48.27389 | 5.28952 | 34190 ft | 439 kts | 105° |
| 2026-05-05 19:46 | 48.26728 | 5.33427 | 34415 ft | 440 kts | 105° |
| 2026-05-05 19:47 | 48.26059 | 5.37906 | 34634 ft | 441 kts | 105° |
| 2026-05-05 19:47 | 48.25383 | 5.42415 | 34824 ft | 442 kts | 105° |
| 2026-05-05 19:47 | 48.24710 | 5.46889 | 34885 ft | 441 kts | 106° |
| 2026-05-05 19:48 | 48.23358 | 5.55842 | 34885 ft | 440 kts | 106° |
| 2026-05-05 19:48 | 48.22004 | 5.64810 | 34882 ft | 441 kts | 106° |
| 2026-05-05 19:49 | 48.20642 | 5.73782 | 34877 ft | 442 kts | 106° |
| 2026-05-05 19:49 | 48.19269 | 5.82757 | 34877 ft | 442 kts | 106° |
| 2026-05-05 19:50 | 48.18116 | 5.90219 | 34872 ft | 443 kts | 106° |
| 2026-05-05 19:50 | 48.16725 | 5.99213 | 34870 ft | 443 kts | 106° |
| 2026-05-05 19:51 | 48.15330 | 6.08196 | 34862 ft | 443 kts | 106° |
| 2026-05-05 19:51 | 48.13930 | 6.17182 | 34859 ft | 443 kts | 107° |
| 2026-05-05 19:52 | 48.12515 | 6.26157 | 34856 ft | 443 kts | 107° |
| 2026-05-05 19:52 | 48.11092 | 6.35127 | 34862 ft | 443 kts | 107° |
| 2026-05-05 19:53 | 48.09673 | 6.44094 | 34868 ft | 443 kts | 107° |
| 2026-05-05 19:53 | 48.08249 | 6.53032 | 34870 ft | 442 kts | 107° |
| 2026-05-05 19:54 | 48.06811 | 6.61973 | 34871 ft | 442 kts | 107° |
| 2026-05-05 19:54 | 48.05366 | 6.70887 | 34872 ft | 441 kts | 107° |
| 2026-05-05 19:55 | 48.03918 | 6.79792 | 34872 ft | 441 kts | 107° |
| 2026-05-05 19:55 | 48.02467 | 6.88694 | 34871 ft | 441 kts | 107° |
| 2026-05-05 19:56 | 48.01004 | 6.97601 | 34871 ft | 441 kts | 107° |
| 2026-05-05 19:56 | 47.99543 | 7.06497 | 34863 ft | 441 kts | 108° |
| 2026-05-05 19:57 | 47.98061 | 7.15396 | 34839 ft | 444 kts | 108° |
| 2026-05-05 19:57 | 47.96563 | 7.24370 | 34838 ft | 447 kts | 108° |
| 2026-05-05 19:58 | 47.95058 | 7.33386 | 34841 ft | 449 kts | 108° |
| 2026-05-05 19:58 | 47.93535 | 7.42430 | 34845 ft | 450 kts | 109° |
| 2026-05-05 19:59 | 47.91996 | 7.51465 | 34851 ft | 450 kts | 109° |
| 2026-05-05 19:59 | 47.90301 | 7.60431 | 34857 ft | 446 kts | 115° |
| 2026-05-05 20:00 | 47.88124 | 7.69086 | 34867 ft | 446 kts | 115° |
| 2026-05-05 20:00 | 47.85934 | 7.77725 | 34870 ft | 446 kts | 115° |
| 2026-05-05 20:01 | 47.83732 | 7.86364 | 34872 ft | 446 kts | 115° |
| 2026-05-05 20:01 | 47.81532 | 7.94987 | 34877 ft | 445 kts | 115° |
| 2026-05-05 20:02 | 47.79329 | 8.03591 | 34877 ft | 445 kts | 115° |
| 2026-05-05 20:02 | 47.77121 | 8.12190 | 34881 ft | 446 kts | 115° |
| 2026-05-05 20:03 | 47.74904 | 8.20784 | 34884 ft | 445 kts | 116° |
| 2026-05-05 20:03 | 47.72683 | 8.29373 | 34885 ft | 446 kts | 116° |
| 2026-05-05 20:04 | 47.70446 | 8.37962 | 34888 ft | 446 kts | 116° |
| 2026-05-05 20:04 | 47.68222 | 8.46557 | 34892 ft | 447 kts | 115° |
| 2026-05-05 20:05 | 47.66217 | 8.55309 | 34894 ft | 449 kts | 112° |
| 2026-05-05 20:05 | 47.64308 | 8.64136 | 34894 ft | 449 kts | 113° |
| 2026-05-05 20:06 | 47.62355 | 8.72928 | 34892 ft | 450 kts | 114° |
| 2026-05-05 20:06 | 47.60343 | 8.81701 | 34889 ft | 450 kts | 114° |
| 2026-05-05 20:07 | 47.58314 | 8.90483 | 34890 ft | 450 kts | 114° |
| 2026-05-05 20:07 | 47.56292 | 8.99256 | 34892 ft | 451 kts | 114° |
| 2026-05-05 20:08 | 47.54274 | 9.07987 | 34892 ft | 451 kts | 114° |
| 2026-05-05 20:08 | 47.52219 | 9.16835 | 34892 ft | 451 kts | 114° |
| 2026-05-05 20:09 | 47.50181 | 9.25559 | 34893 ft | 452 kts | 114° |
| 2026-05-05 20:09 | 47.48128 | 9.34354 | 34892 ft | 452 kts | 114° |
| 2026-05-05 20:10 | 47.46071 | 9.43125 | 34901 ft | 452 kts | 115° |
| 2026-05-05 20:10 | 47.44003 | 9.51892 | 34911 ft | 452 kts | 115° |
| 2026-05-05 20:11 | 47.41920 | 9.60648 | 34913 ft | 451 kts | 115° |
| 2026-05-05 20:11 | 47.40231 | 9.69615 | 34916 ft | 457 kts | 107° |
| 2026-05-05 20:12 | 47.38971 | 9.78798 | 34919 ft | 457 kts | 107° |
| 2026-05-05 20:12 | 47.37700 | 9.87975 | 34921 ft | 456 kts | 107° |
| 2026-05-05 20:13 | 47.36419 | 9.97146 | 34925 ft | 457 kts | 107° |
| 2026-05-05 20:13 | 47.35132 | 10.06272 | 34931 ft | 457 kts | 107° |
| 2026-05-05 20:14 | 47.33833 | 10.15437 | 34937 ft | 457 kts | 107° |
| 2026-05-05 20:14 | 47.32531 | 10.24567 | 34942 ft | 456 kts | 107° |
| 2026-05-05 20:15 | 47.31220 | 10.33710 | 34946 ft | 456 kts | 107° |
| 2026-05-05 20:15 | 47.29895 | 10.42864 | 34943 ft | 457 kts | 106° |
| 2026-05-05 20:16 | 47.28569 | 10.52025 | 34944 ft | 457 kts | 106° |
| 2026-05-05 20:16 | 47.27236 | 10.61183 | 34936 ft | 457 kts | 106° |
| 2026-05-05 20:17 | 47.25890 | 10.70345 | 34933 ft | 458 kts | 106° |
| 2026-05-05 20:17 | 47.24534 | 10.79495 | 34932 ft | 458 kts | 106° |
| 2026-05-05 20:18 | 47.23174 | 10.88644 | 34924 ft | 458 kts | 106° |
| 2026-05-05 20:18 | 47.21808 | 10.97803 | 34916 ft | 459 kts | 106° |
| 2026-05-05 20:19 | 47.20425 | 11.06969 | 34909 ft | 459 kts | 106° |
| 2026-05-05 20:19 | 47.19039 | 11.16117 | 34903 ft | 459 kts | 106° |
| 2026-05-05 20:20 | 47.17651 | 11.25269 | 34896 ft | 459 kts | 105° |
| 2026-05-05 20:20 | 47.16257 | 11.34424 | 34891 ft | 459 kts | 105° |
| 2026-05-05 20:21 | 47.14859 | 11.43574 | 34888 ft | 459 kts | 105° |
| 2026-05-05 20:21 | 47.13448 | 11.52716 | 34893 ft | 458 kts | 106° |
| 2026-05-05 20:22 | 47.12023 | 11.61835 | 34893 ft | 458 kts | 106° |
| 2026-05-05 20:22 | 47.10589 | 11.70956 | 34899 ft | 459 kts | 105° |
| 2026-05-05 20:23 | 47.09156 | 11.80081 | 34912 ft | 459 kts | 106° |
| 2026-05-05 20:23 | 47.07378 | 11.89036 | 34939 ft | 454 kts | 117° |
| 2026-05-05 20:24 | 47.04614 | 11.97347 | 34951 ft | 454 kts | 120° |
| 2026-05-05 20:24 | 47.01835 | 12.05641 | 34962 ft | 453 kts | 119° |
| 2026-05-05 20:25 | 46.99071 | 12.13879 | 34972 ft | 453 kts | 119° |
| 2026-05-05 20:25 | 46.96279 | 12.22168 | 34990 ft | 454 kts | 119° |
| 2026-05-05 20:26 | 46.93488 | 12.30451 | 35004 ft | 454 kts | 119° |
| 2026-05-05 20:26 | 46.90691 | 12.38733 | 35008 ft | 454 kts | 119° |
| 2026-05-05 20:27 | 46.87876 | 12.47004 | 35014 ft | 454 kts | 119° |
| 2026-05-05 20:27 | 46.85047 | 12.55270 | 35017 ft | 455 kts | 119° |
| 2026-05-05 20:28 | 46.82221 | 12.63537 | 35020 ft | 455 kts | 119° |
| 2026-05-05 20:28 | 46.79387 | 12.71793 | 35019 ft | 455 kts | 119° |
| 2026-05-05 20:29 | 46.76542 | 12.80053 | 35022 ft | 455 kts | 119° |
| 2026-05-05 20:29 | 46.73700 | 12.88296 | 35019 ft | 455 kts | 119° |
| 2026-05-05 20:30 | 46.70849 | 12.96536 | 35019 ft | 456 kts | 119° |
| 2026-05-05 20:30 | 46.67983 | 13.04769 | 35015 ft | 455 kts | 119° |
| 2026-05-05 20:31 | 46.65113 | 13.12981 | 35022 ft | 455 kts | 119° |
| 2026-05-05 20:31 | 46.62238 | 13.21196 | 35018 ft | 456 kts | 119° |
| 2026-05-05 20:32 | 46.59832 | 13.28071 | 35016 ft | 455 kts | 119° |
| 2026-05-05 20:32 | 46.56455 | 13.37568 | 35008 ft | 454 kts | 124° |
| 2026-05-05 20:33 | 46.52825 | 13.45025 | 35002 ft | 452 kts | 129° |
| 2026-05-05 20:33 | 46.49734 | 13.51203 | 34997 ft | 452 kts | 128° |
| 2026-05-05 20:34 | 46.46041 | 13.58581 | 34999 ft | 452 kts | 128° |
| 2026-05-05 20:34 | 46.42335 | 13.65965 | 35003 ft | 453 kts | 129° |
| 2026-05-05 20:35 | 46.38625 | 13.73334 | 34980 ft | 452 kts | 129° |
| 2026-05-05 20:35 | 46.34910 | 13.80693 | 34978 ft | 453 kts | 129° |
| 2026-05-05 20:36 | 46.31189 | 13.88049 | 34975 ft | 453 kts | 129° |
| 2026-05-05 20:36 | 46.27458 | 13.95391 | 34976 ft | 453 kts | 129° |
| 2026-05-05 20:37 | 46.23721 | 14.02727 | 34977 ft | 454 kts | 129° |
| 2026-05-05 20:37 | 46.19976 | 14.10057 | 34980 ft | 454 kts | 129° |
| 2026-05-05 20:38 | 46.16224 | 14.17394 | 34983 ft | 454 kts | 129° |
| 2026-05-05 20:38 | 46.12466 | 14.24724 | 34992 ft | 455 kts | 129° |
| 2026-05-05 20:39 | 46.08709 | 14.32042 | 34994 ft | 454 kts | 129° |
| 2026-05-05 20:39 | 46.04939 | 14.39345 | 35005 ft | 454 kts | 129° |
| 2026-05-05 20:40 | 46.01165 | 14.46630 | 35004 ft | 454 kts | 129° |
| 2026-05-05 20:40 | 45.97389 | 14.53898 | 34993 ft | 454 kts | 129° |
| 2026-05-05 20:41 | 45.93610 | 14.61173 | 34980 ft | 455 kts | 129° |
| 2026-05-05 20:41 | 45.89819 | 14.68465 | 34980 ft | 456 kts | 129° |
| 2026-05-05 20:42 | 45.86009 | 14.75747 | 34982 ft | 457 kts | 129° |
| 2026-05-05 20:42 | 45.82189 | 14.83029 | 34983 ft | 457 kts | 129° |
| 2026-05-05 20:43 | 45.78370 | 14.90309 | 34999 ft | 457 kts | 129° |
| 2026-05-05 20:43 | 45.74542 | 14.97595 | 34987 ft | 458 kts | 129° |
| 2026-05-05 20:44 | 45.70700 | 15.04876 | 34989 ft | 459 kts | 129° |
| 2026-05-05 20:44 | 45.66846 | 15.12155 | 34992 ft | 460 kts | 129° |
| 2026-05-05 20:45 | 45.61044 | 15.23085 | 35001 ft | 460 kts | 129° |
| 2026-05-05 20:45 | 45.57152 | 15.30349 | 34997 ft | 460 kts | 131° |
| 2026-05-05 20:46 | 45.53012 | 15.37294 | 34998 ft | 459 kts | 135° |
| 2026-05-05 20:46 | 45.48694 | 15.44000 | 35006 ft | 459 kts | 135° |
| 2026-05-05 20:47 | 45.44380 | 15.50723 | 35008 ft | 460 kts | 134° |
| 2026-05-05 20:47 | 45.40116 | 15.57511 | 35010 ft | 460 kts | 134° |
| 2026-05-05 20:48 | 45.35860 | 15.64307 | 35005 ft | 460 kts | 134° |
| 2026-05-05 20:48 | 45.31601 | 15.71083 | 35004 ft | 460 kts | 134° |
| 2026-05-05 20:49 | 45.27330 | 15.77846 | 34990 ft | 460 kts | 134° |
| 2026-05-05 20:49 | 45.23050 | 15.84603 | 35001 ft | 460 kts | 134° |
| 2026-05-05 20:50 | 45.18770 | 15.91357 | 34988 ft | 460 kts | 134° |
| 2026-05-05 20:50 | 45.14485 | 15.98093 | 34986 ft | 460 kts | 134° |
| 2026-05-05 20:51 | 45.10191 | 16.04804 | 34999 ft | 460 kts | 134° |
| 2026-05-05 20:51 | 45.05895 | 16.11519 | 34987 ft | 460 kts | 134° |
| 2026-05-05 20:52 | 45.01595 | 16.18220 | 34986 ft | 460 kts | 134° |
| 2026-05-05 20:52 | 44.97294 | 16.24909 | 34986 ft | 460 kts | 134° |
| 2026-05-05 20:53 | 44.92989 | 16.31595 | 34991 ft | 461 kts | 134° |
| 2026-05-05 20:53 | 44.88671 | 16.38282 | 34994 ft | 461 kts | 135° |
| 2026-05-05 20:54 | 44.84349 | 16.44960 | 34996 ft | 461 kts | 135° |
| 2026-05-05 20:54 | 44.80018 | 16.51633 | 35004 ft | 462 kts | 135° |
| 2026-05-05 20:55 | 44.75685 | 16.58299 | 34997 ft | 462 kts | 135° |
| 2026-05-05 20:55 | 44.71341 | 16.64963 | 34999 ft | 462 kts | 135° |
| 2026-05-05 20:56 | 44.66997 | 16.71619 | 35000 ft | 462 kts | 135° |
| 2026-05-05 20:56 | 44.62647 | 16.78259 | 35006 ft | 462 kts | 135° |
| 2026-05-05 20:57 | 44.58290 | 16.84890 | 35006 ft | 462 kts | 135° |
| 2026-05-05 20:57 | 44.53944 | 16.91543 | 35011 ft | 463 kts | 133° |
| 2026-05-05 20:58 | 44.49876 | 16.98545 | 35005 ft | 464 kts | 129° |
| 2026-05-05 20:58 | 44.45978 | 17.05746 | 35000 ft | 464 kts | 129° |
| 2026-05-05 20:59 | 44.42039 | 17.12899 | 34999 ft | 464 kts | 130° |
| 2026-05-05 20:59 | 44.38027 | 17.19970 | 35005 ft | 464 kts | 130° |
| 2026-05-05 21:00 | 44.33987 | 17.27013 | 35015 ft | 465 kts | 130° |
| 2026-05-05 21:00 | 44.29956 | 17.34065 | 35009 ft | 464 kts | 130° |
| 2026-05-05 21:01 | 44.25930 | 17.41121 | 35015 ft | 465 kts | 130° |
| 2026-05-05 21:01 | 44.21902 | 17.48170 | 35017 ft | 465 kts | 130° |
| 2026-05-05 21:02 | 44.17870 | 17.55217 | 35018 ft | 465 kts | 130° |
| 2026-05-05 21:02 | 44.13824 | 17.62258 | 35017 ft | 465 kts | 130° |
| 2026-05-05 21:03 | 44.09774 | 17.69298 | 35023 ft | 466 kts | 130° |
| 2026-05-05 21:03 | 44.05804 | 17.76419 | 35018 ft | 466 kts | 129° |
| 2026-05-05 21:04 | 44.01854 | 17.83568 | 35023 ft | 467 kts | 129° |
| 2026-05-05 21:04 | 43.97875 | 17.90688 | 35022 ft | 466 kts | 129° |
| 2026-05-05 21:05 | 43.93879 | 17.97786 | 35031 ft | 467 kts | 129° |
| 2026-05-05 21:05 | 43.89878 | 18.04885 | 35034 ft | 467 kts | 129° |
| 2026-05-05 21:06 | 43.85866 | 18.11972 | 35035 ft | 467 kts | 130° |
| 2026-05-05 21:06 | 43.81856 | 18.19054 | 35035 ft | 467 kts | 130° |
| 2026-05-05 21:07 | 43.77851 | 18.26139 | 35039 ft | 467 kts | 129° |
| 2026-05-05 21:07 | 43.73827 | 18.33206 | 35032 ft | 468 kts | 130° |
| 2026-05-05 21:08 | 43.69794 | 18.40273 | 35037 ft | 468 kts | 130° |
| 2026-05-05 21:08 | 43.65754 | 18.47334 | 35041 ft | 468 kts | 130° |
| 2026-05-05 21:09 | 43.61715 | 18.54394 | 35044 ft | 469 kts | 130° |
| 2026-05-05 21:09 | 43.57670 | 18.61459 | 35049 ft | 469 kts | 130° |
| 2026-05-05 21:10 | 43.53621 | 18.68500 | 35050 ft | 469 kts | 130° |
| 2026-05-05 21:10 | 43.49562 | 18.75531 | 35048 ft | 469 kts | 130° |
| 2026-05-05 21:11 | 43.45497 | 18.82559 | 35042 ft | 469 kts | 129° |
| 2026-05-05 21:11 | 43.41417 | 18.89589 | 35044 ft | 471 kts | 129° |
| 2026-05-05 21:12 | 43.38009 | 18.95438 | 35047 ft | 472 kts | 130° |
| 2026-05-05 21:12 | 43.33904 | 19.02475 | 35055 ft | 472 kts | 129° |
| 2026-05-05 21:13 | 43.29795 | 19.09517 | 35058 ft | 472 kts | 129° |
| 2026-05-05 21:13 | 43.25685 | 19.16545 | 35060 ft | 472 kts | 129° |
| 2026-05-05 21:14 | 43.21563 | 19.23563 | 35063 ft | 472 kts | 129° |
| 2026-05-05 21:14 | 43.17437 | 19.30563 | 35066 ft | 473 kts | 130° |
| 2026-05-05 21:15 | 43.13305 | 19.37562 | 35071 ft | 472 kts | 129° |
| 2026-05-05 21:15 | 43.09185 | 19.44558 | 35065 ft | 472 kts | 129° |
| 2026-05-05 21:16 | 43.05047 | 19.51529 | 35069 ft | 473 kts | 130° |
| 2026-05-05 21:16 | 43.00893 | 19.58501 | 35065 ft | 473 kts | 130° |
| 2026-05-05 21:17 | 42.96748 | 19.65475 | 35065 ft | 473 kts | 129° |
| 2026-05-05 21:17 | 42.92595 | 19.72457 | 35070 ft | 473 kts | 130° |
| 2026-05-05 21:18 | 42.88434 | 19.79418 | 35069 ft | 474 kts | 130° |
| 2026-05-05 21:18 | 42.84261 | 19.86376 | 35072 ft | 474 kts | 130° |
| 2026-05-05 21:19 | 42.80088 | 19.93322 | 35071 ft | 474 kts | 130° |
| 2026-05-05 21:19 | 42.75905 | 20.00265 | 35070 ft | 474 kts | 130° |
| 2026-05-05 21:20 | 42.71718 | 20.07194 | 35068 ft | 474 kts | 130° |
| 2026-05-05 21:20 | 42.67530 | 20.14116 | 35063 ft | 474 kts | 130° |
| 2026-05-05 21:21 | 42.63338 | 20.21024 | 35063 ft | 474 kts | 130° |
| 2026-05-05 21:21 | 42.59147 | 20.27911 | 35057 ft | 473 kts | 130° |
| 2026-05-05 21:22 | 42.54951 | 20.34800 | 35064 ft | 474 kts | 130° |
| 2026-05-05 21:22 | 42.50745 | 20.41685 | 35057 ft | 474 kts | 130° |
| 2026-05-05 21:23 | 42.46534 | 20.48567 | 35061 ft | 474 kts | 130° |
| 2026-05-05 21:23 | 42.42309 | 20.55435 | 35062 ft | 475 kts | 130° |
| 2026-05-05 21:24 | 42.38077 | 20.62305 | 35063 ft | 475 kts | 130° |
| 2026-05-05 21:24 | 42.33850 | 20.69173 | 35065 ft | 475 kts | 130° |
| 2026-05-05 21:25 | 42.29623 | 20.76024 | 35066 ft | 474 kts | 130° |
| 2026-05-05 21:25 | 42.25391 | 20.82859 | 35069 ft | 474 kts | 130° |
| 2026-05-05 21:26 | 42.21151 | 20.89683 | 35075 ft | 474 kts | 130° |
| 2026-05-05 21:26 | 42.16910 | 20.96486 | 35066 ft | 474 kts | 130° |
| 2026-05-05 21:27 | 42.12661 | 21.03286 | 35066 ft | 474 kts | 130° |
| 2026-05-05 21:27 | 42.08065 | 21.09621 | 35064 ft | 473 kts | 137° |
| 2026-05-05 21:28 | 42.03278 | 21.15690 | 35067 ft | 473 kts | 137° |
| 2026-05-05 21:28 | 41.98479 | 21.21749 | 35062 ft | 473 kts | 137° |
| 2026-05-05 21:29 | 41.93681 | 21.27816 | 35047 ft | 474 kts | 137° |
| 2026-05-05 21:29 | 41.88870 | 21.33902 | 35045 ft | 475 kts | 137° |
| 2026-05-05 21:30 | 41.84057 | 21.39991 | 35047 ft | 476 kts | 137° |
| 2026-05-05 21:30 | 41.79224 | 21.46070 | 35053 ft | 477 kts | 137° |
| 2026-05-05 21:31 | 41.74382 | 21.52139 | 35060 ft | 477 kts | 137° |
| 2026-05-05 21:31 | 41.69540 | 21.58187 | 35062 ft | 476 kts | 137° |
| 2026-05-05 21:32 | 41.64699 | 21.64239 | 35064 ft | 476 kts | 137° |
| 2026-05-05 21:32 | 41.59859 | 21.70273 | 35064 ft | 476 kts | 137° |
| 2026-05-05 21:33 | 41.55011 | 21.76293 | 35066 ft | 476 kts | 137° |
| 2026-05-05 21:33 | 41.50161 | 21.82303 | 35062 ft | 476 kts | 137° |
| 2026-05-05 21:34 | 41.45310 | 21.88313 | 35056 ft | 476 kts | 137° |
| 2026-05-05 21:34 | 41.40451 | 21.94322 | 35054 ft | 477 kts | 137° |
| 2026-05-05 21:35 | 41.35578 | 22.00325 | 35052 ft | 478 kts | 137° |
| 2026-05-05 21:35 | 41.30697 | 22.06323 | 35052 ft | 478 kts | 137° |
| 2026-05-05 21:36 | 41.25821 | 22.12321 | 35047 ft | 478 kts | 137° |
| 2026-05-05 21:36 | 41.20932 | 22.18317 | 35047 ft | 478 kts | 137° |
| 2026-05-05 21:37 | 41.16020 | 22.24295 | 35045 ft | 479 kts | 138° |
| 2026-05-05 21:37 | 41.10929 | 22.30013 | 35044 ft | 480 kts | 142° |
| 2026-05-05 21:38 | 41.05677 | 22.35508 | 35046 ft | 481 kts | 142° |
| 2026-05-05 21:38 | 41.00428 | 22.41014 | 35042 ft | 482 kts | 142° |
| 2026-05-05 21:39 | 40.95207 | 22.46591 | 35041 ft | 483 kts | 141° |
| 2026-05-05 21:39 | 40.89992 | 22.52202 | 35039 ft | 484 kts | 141° |
| 2026-05-05 21:40 | 40.84760 | 22.57803 | 35035 ft | 484 kts | 142° |
| 2026-05-05 21:40 | 40.79512 | 22.63380 | 35034 ft | 484 kts | 142° |
| 2026-05-05 21:41 | 40.74261 | 22.68954 | 35030 ft | 485 kts | 142° |
| 2026-05-05 21:41 | 40.68997 | 22.74524 | 35029 ft | 485 kts | 142° |
| 2026-05-05 21:42 | 40.63734 | 22.80091 | 35023 ft | 486 kts | 142° |
| 2026-05-05 21:42 | 40.58469 | 22.85650 | 35023 ft | 485 kts | 142° |
| 2026-05-05 21:43 | 40.53199 | 22.91209 | 35020 ft | 485 kts | 142° |
| 2026-05-05 21:43 | 40.47915 | 22.96747 | 35014 ft | 486 kts | 142° |
| 2026-05-05 21:44 | 40.43002 | 23.02823 | 35013 ft | 486 kts | 132° |
| 2026-05-05 21:44 | 40.38361 | 23.09273 | 35017 ft | 486 kts | 133° |
| 2026-05-05 21:45 | 40.33696 | 23.15690 | 35023 ft | 486 kts | 133° |
| 2026-05-05 21:45 | 40.29039 | 23.22105 | 35029 ft | 486 kts | 133° |
| 2026-05-05 21:46 | 40.24385 | 23.28509 | 35033 ft | 485 kts | 133° |
| 2026-05-05 21:46 | 40.19723 | 23.34901 | 35033 ft | 485 kts | 133° |
| 2026-05-05 21:47 | 40.15060 | 23.41276 | 35039 ft | 485 kts | 133° |
| 2026-05-05 21:47 | 40.10400 | 23.47651 | 35040 ft | 485 kts | 133° |
| 2026-05-05 21:48 | 40.05744 | 23.54017 | 35041 ft | 485 kts | 133° |
| 2026-05-05 21:48 | 40.01076 | 23.60371 | 35047 ft | 485 kts | 133° |
| 2026-05-05 21:49 | 39.96402 | 23.66712 | 35047 ft | 485 kts | 133° |
| 2026-05-05 21:49 | 39.91731 | 23.73044 | 35046 ft | 484 kts | 133° |
| 2026-05-05 21:50 | 39.87061 | 23.79367 | 35045 ft | 485 kts | 133° |
| 2026-05-05 21:50 | 39.82411 | 23.85641 | 35048 ft | 484 kts | 133° |
| 2026-05-05 21:51 | 39.77735 | 23.91943 | 35048 ft | 484 kts | 133° |
| 2026-05-05 21:51 | 39.73053 | 23.98237 | 35044 ft | 484 kts | 133° |
| 2026-05-05 21:52 | 39.66190 | 24.07434 | 35042 ft | 484 kts | 133° |
| 2026-05-05 21:53 | 39.61492 | 24.13707 | 35043 ft | 484 kts | 133° |
| 2026-05-05 21:53 | 39.56800 | 24.19969 | 35040 ft | 484 kts | 133° |
| 2026-05-05 21:54 | 39.52105 | 24.26226 | 35039 ft | 484 kts | 133° |
| 2026-05-05 21:54 | 39.48162 | 24.31463 | 35037 ft | 485 kts | 133° |
| 2026-05-05 21:55 | 39.43450 | 24.37705 | 35037 ft | 485 kts | 133° |
| 2026-05-05 21:55 | 39.38734 | 24.43944 | 35032 ft | 485 kts | 133° |
| 2026-05-05 21:56 | 39.34012 | 24.50192 | 35033 ft | 486 kts | 133° |
| 2026-05-05 21:56 | 39.29317 | 24.56390 | 35030 ft | 486 kts | 133° |
| 2026-05-05 21:57 | 39.24584 | 24.62622 | 35034 ft | 486 kts | 133° |
| 2026-05-05 21:57 | 39.19843 | 24.68843 | 35041 ft | 487 kts | 133° |
| 2026-05-05 21:58 | 39.15090 | 24.75062 | 35043 ft | 487 kts | 133° |
| 2026-05-05 21:58 | 39.10338 | 24.81275 | 35042 ft | 487 kts | 133° |
| 2026-05-05 21:59 | 39.05588 | 24.87483 | 35044 ft | 487 kts | 133° |
| 2026-05-05 21:59 | 39.00830 | 24.93683 | 35043 ft | 487 kts | 133° |
| 2026-05-05 22:00 | 38.96065 | 24.99875 | 35041 ft | 487 kts | 133° |
| 2026-05-05 22:00 | 38.91300 | 25.06065 | 35039 ft | 487 kts | 133° |
| 2026-05-05 22:01 | 38.86528 | 25.12258 | 35041 ft | 488 kts | 133° |
| 2026-05-05 22:01 | 38.81751 | 25.18440 | 35044 ft | 488 kts | 134° |
| 2026-05-05 22:02 | 38.76958 | 25.24607 | 35048 ft | 488 kts | 134° |
| 2026-05-05 22:02 | 38.72168 | 25.30765 | 35055 ft | 488 kts | 134° |
| 2026-05-05 22:03 | 38.67373 | 25.36913 | 35057 ft | 488 kts | 134° |
| 2026-05-05 22:03 | 38.62576 | 25.43053 | 35060 ft | 488 kts | 134° |
| 2026-05-05 22:04 | 38.57783 | 25.49189 | 35061 ft | 488 kts | 134° |
| 2026-05-05 22:04 | 38.52993 | 25.55328 | 35059 ft | 488 kts | 134° |
| 2026-05-05 22:05 | 38.48194 | 25.61442 | 35058 ft | 488 kts | 134° |
| 2026-05-05 22:05 | 38.43376 | 25.67547 | 35051 ft | 488 kts | 134° |
| 2026-05-05 22:06 | 38.38563 | 25.73648 | 35055 ft | 488 kts | 134° |
| 2026-05-05 22:06 | 38.33750 | 25.79757 | 35056 ft | 488 kts | 134° |
| 2026-05-05 22:07 | 38.28931 | 25.85841 | 35055 ft | 488 kts | 135° |
| 2026-05-05 22:07 | 38.23514 | 25.90988 | 35048 ft | 487 kts | 154° |
| 2026-05-05 22:08 | 38.17261 | 25.94176 | 35044 ft | 484 kts | 163° |
| 2026-05-05 22:08 | 38.10923 | 25.97053 | 35041 ft | 484 kts | 162° |
| 2026-05-05 22:09 | 38.04583 | 25.99951 | 35042 ft | 484 kts | 162° |
| 2026-05-05 22:09 | 37.98244 | 26.02833 | 35045 ft | 484 kts | 162° |
| 2026-05-05 22:10 | 37.91942 | 26.05698 | 35048 ft | 485 kts | 162° |
| 2026-05-05 22:10 | 37.85582 | 26.08577 | 35053 ft | 485 kts | 162° |
| 2026-05-05 22:11 | 37.79221 | 26.11450 | 35055 ft | 485 kts | 162° |
| 2026-05-05 22:11 | 37.72865 | 26.14310 | 35057 ft | 485 kts | 163° |
| 2026-05-05 22:12 | 37.66508 | 26.17173 | 35060 ft | 485 kts | 163° |
| 2026-05-05 22:12 | 37.60151 | 26.20036 | 35058 ft | 485 kts | 162° |
| 2026-05-05 22:13 | 37.53791 | 26.22894 | 35062 ft | 485 kts | 163° |
| 2026-05-05 22:13 | 37.47433 | 26.25740 | 35065 ft | 485 kts | 163° |
| 2026-05-05 22:14 | 37.41075 | 26.28568 | 35075 ft | 484 kts | 163° |
| 2026-05-05 22:14 | 37.34728 | 26.31402 | 35068 ft | 484 kts | 163° |
| 2026-05-05 22:15 | 37.28391 | 26.34233 | 35075 ft | 483 kts | 163° |
| 2026-05-05 22:15 | 37.22045 | 26.37046 | 35071 ft | 484 kts | 163° |
| 2026-05-05 22:16 | 37.15702 | 26.39853 | 35068 ft | 483 kts | 163° |
| 2026-05-05 22:16 | 37.09358 | 26.42658 | 35068 ft | 483 kts | 163° |
| 2026-05-05 22:17 | 37.03018 | 26.45469 | 35070 ft | 483 kts | 163° |
| 2026-05-05 22:17 | 36.96686 | 26.48276 | 35069 ft | 483 kts | 162° |
| 2026-05-05 22:17 | 36.93680 | 26.50036 | 35068 ft | 485 kts | 151° |
| 2026-05-05 22:18 | 36.90882 | 26.52496 | 35067 ft | 487 kts | 140° |
| 2026-05-05 22:18 | 36.88494 | 26.55433 | 34462 ft | 492 kts | 128° |
| 2026-05-05 22:18 | 36.86559 | 26.58939 | 33881 ft | 489 kts | 116° |
| 2026-05-05 22:18 | 36.85128 | 26.62766 | 33340 ft | 485 kts | 110° |
| 2026-05-05 22:19 | 36.83818 | 26.66642 | 32792 ft | 484 kts | 110° |
| 2026-05-05 22:19 | 36.82495 | 26.70509 | 32261 ft | 483 kts | 110° |
| 2026-05-05 22:19 | 36.81170 | 26.74346 | 31747 ft | 481 kts | 110° |
| 2026-05-05 22:19 | 36.79844 | 26.78167 | 31241 ft | 478 kts | 110° |
| 2026-05-05 22:20 | 36.78526 | 26.81959 | 30738 ft | 476 kts | 110° |
| 2026-05-05 22:20 | 36.77216 | 26.85738 | 30245 ft | 473 kts | 110° |
| 2026-05-05 22:20 | 36.75917 | 26.89494 | 29759 ft | 470 kts | 110° |
| 2026-05-05 22:20 | 36.74624 | 26.93231 | 29283 ft | 468 kts | 110° |
| 2026-05-05 22:21 | 36.73339 | 26.96941 | 28807 ft | 465 kts | 110° |
| 2026-05-05 22:21 | 36.72060 | 27.00627 | 28352 ft | 461 kts | 110° |
| 2026-05-05 22:21 | 36.70790 | 27.04280 | 27897 ft | 458 kts | 110° |
| 2026-05-05 22:21 | 36.69530 | 27.07897 | 27429 ft | 454 kts | 110° |
| 2026-05-05 22:22 | 36.68275 | 27.11501 | 26975 ft | 451 kts | 110° |
| 2026-05-05 22:22 | 36.67032 | 27.15069 | 26508 ft | 448 kts | 110° |
| 2026-05-05 22:22 | 36.65792 | 27.18616 | 26038 ft | 445 kts | 111° |
| 2026-05-05 22:22 | 36.64562 | 27.22131 | 25587 ft | 442 kts | 111° |
| 2026-05-05 22:23 | 36.63339 | 27.25621 | 25175 ft | 437 kts | 111° |
| 2026-05-05 22:23 | 36.62121 | 27.29088 | 24696 ft | 435 kts | 111° |
| 2026-05-05 22:23 | 36.60911 | 27.32517 | 24158 ft | 434 kts | 111° |
| 2026-05-05 22:23 | 36.59706 | 27.35934 | 23825 ft | 427 kts | 111° |
| 2026-05-05 22:24 | 36.58521 | 27.39291 | 23150 ft | 422 kts | 111° |
| 2026-05-05 22:24 | 36.57355 | 27.42593 | 22632 ft | 410 kts | 111° |
| 2026-05-05 22:24 | 36.56215 | 27.45811 | 22182 ft | 406 kts | 111° |
| 2026-05-05 22:24 | 36.55085 | 27.49018 | 21726 ft | 404 kts | 111° |
| 2026-05-05 22:25 | 36.53958 | 27.52215 | 21267 ft | 403 kts | 111° |
| 2026-05-05 22:25 | 36.52836 | 27.55397 | 20818 ft | 401 kts | 111° |
| 2026-05-05 22:25 | 36.52458 | 27.56469 | 20666 ft | 400 kts | 111° |
| 2026-05-05 22:25 | 36.51822 | 27.58288 | 20503 ft | 396 kts | 111° |
| 2026-05-05 22:26 | 36.50716 | 27.61433 | 19977 ft | 397 kts | 111° |
| 2026-05-05 22:26 | 36.49610 | 27.64550 | 19594 ft | 393 kts | 111° |
| 2026-05-05 22:26 | 36.48508 | 27.67631 | 19200 ft | 386 kts | 111° |
| 2026-05-05 22:26 | 36.47429 | 27.70647 | 18659 ft | 376 kts | 111° |
| 2026-05-05 22:27 | 36.46544 | 27.73621 | 18264 ft | 359 kts | 101° |
| 2026-05-05 22:27 | 36.46077 | 27.76606 | 17841 ft | 346 kts | 95° |
| 2026-05-05 22:27 | 36.45692 | 27.79504 | 17458 ft | 335 kts | 95° |
| 2026-05-05 22:27 | 36.45312 | 27.82319 | 17096 ft | 326 kts | 96° |
| 2026-05-05 22:28 | 36.44936 | 27.85098 | 16738 ft | 326 kts | 96° |
| 2026-05-05 22:28 | 36.44561 | 27.87879 | 16382 ft | 327 kts | 96° |
| 2026-05-05 22:28 | 36.44066 | 27.90636 | 16026 ft | 330 kts | 105° |
| 2026-05-05 22:28 | 36.43132 | 27.93244 | 15661 ft | 333 kts | 118° |
| 2026-05-05 22:29 | 36.41785 | 27.95596 | 15294 ft | 335 kts | 126° |
| 2026-05-05 22:29 | 36.40357 | 27.97882 | 14915 ft | 335 kts | 126° |
| 2026-05-05 22:29 | 36.38933 | 28.00180 | 14539 ft | 336 kts | 126° |
| 2026-05-05 22:29 | 36.37510 | 28.02484 | 14165 ft | 336 kts | 126° |
| 2026-05-05 22:30 | 36.36085 | 28.04788 | 13789 ft | 336 kts | 126° |
| 2026-05-05 22:30 | 36.34667 | 28.07082 | 13416 ft | 336 kts | 126° |
| 2026-05-05 22:30 | 36.33245 | 28.09394 | 13019 ft | 336 kts | 125° |
| 2026-05-05 22:30 | 36.31864 | 28.11733 | 12592 ft | 337 kts | 124° |
| 2026-05-05 22:31 | 36.30504 | 28.14095 | 12155 ft | 337 kts | 123° |
| 2026-05-05 22:31 | 36.29151 | 28.16470 | 11713 ft | 337 kts | 123° |
| 2026-05-05 22:31 | 36.27797 | 28.18846 | 11302 ft | 336 kts | 124° |
| 2026-05-05 22:31 | 36.26449 | 28.21195 | 10892 ft | 335 kts | 124° |
| 2026-05-05 22:32 | 36.25103 | 28.23521 | 10606 ft | 329 kts | 124° |
| 2026-05-05 22:32 | 36.24098 | 28.25993 | 10330 ft | 314 kts | 103° |
| 2026-05-05 22:32 | 36.23889 | 28.28569 | 9861 ft | 300 kts | 81° |
| 2026-05-05 22:32 | 36.24454 | 28.31003 | 9250 ft | 292 kts | 60° |
| 2026-05-05 22:33 | 36.25658 | 28.32977 | 8595 ft | 287 kts | 40° |
| 2026-05-05 22:33 | 36.27311 | 28.34280 | 7997 ft | 279 kts | 20° |
| 2026-05-05 22:33 | 36.29151 | 28.34921 | 7403 ft | 273 kts | 12° |
| 2026-05-05 22:33 | 36.30983 | 28.35461 | 6919 ft | 266 kts | 12° |
| 2026-05-05 22:34 | 36.32749 | 28.35983 | 6511 ft | 256 kts | 12° |
| 2026-05-05 22:34 | 36.34485 | 28.36496 | 6165 ft | 255 kts | 12° |
| 2026-05-05 22:34 | 36.36175 | 28.36994 | 5974 ft | 247 kts | 12° |
| 2026-05-05 22:34 | 36.37877 | 28.37498 | 5300 ft | 253 kts | 12° |
| 2026-05-05 22:35 | 36.39584 | 28.38004 | 4897 ft | 253 kts | 12° |
| 2026-05-05 22:35 | 36.41300 | 28.38513 | 4489 ft | 253 kts | 12° |
| 2026-05-05 22:35 | 36.43033 | 28.38840 | 4093 ft | 252 kts | 357° |
| 2026-05-05 22:35 | 36.44672 | 28.38382 | 4054 ft | 230 kts | 335° |
| 2026-05-05 22:36 | 36.45958 | 28.37330 | 4055 ft | 220 kts | 317° |
| 2026-05-05 22:36 | 36.46886 | 28.35831 | 4007 ft | 220 kts | 298° |
| 2026-05-05 22:36 | 36.47370 | 28.34038 | 3851 ft | 221 kts | 279° |
| 2026-05-05 22:36 | 36.47339 | 28.32133 | 3619 ft | 223 kts | 259° |
| 2026-05-05 22:37 | 36.46862 | 28.30328 | 3343 ft | 223 kts | 252° |
| 2026-05-05 22:37 | 36.46328 | 28.28494 | 3045 ft | 223 kts | 252° |
| 2026-05-05 22:37 | 36.45807 | 28.26699 | 2755 ft | 224 kts | 252° |
| 2026-05-05 22:37 | 36.45288 | 28.24915 | 2464 ft | 214 kts | 252° |
| 2026-05-05 22:38 | 36.44794 | 28.23217 | 2191 ft | 203 kts | 252° |
| 2026-05-05 22:38 | 36.44330 | 28.21627 | 1932 ft | 189 kts | 252° |
| 2026-05-05 22:38 | 36.43901 | 28.20153 | 1688 ft | 175 kts | 252° |
| 2026-05-05 22:38 | 36.43499 | 28.18778 | 1420 ft | 165 kts | 252° |
| 2026-05-05 22:39 | 36.43121 | 28.17487 | 1203 ft | 154 kts | 252° |
| 2026-05-05 22:39 | 36.42768 | 28.16261 | 1000 ft | 148 kts | 254° |
| 2026-05-05 22:39 | 36.42448 | 28.15062 | 824 ft | 146 kts | 253° |
| 2026-05-05 22:39 | 36.42094 | 28.13882 | 655 ft | 145 kts | 252° |
| 2026-05-05 22:40 | 36.41739 | 28.12704 | 463 ft | 145 kts | 252° |
| 2026-05-05 22:40 | 36.41389 | 28.11530 | 304 ft | 145 kts | 252° |
| 2026-05-05 22:40 | 36.41052 | 28.10351 | 97 ft | 145 kts | 251° |
| 2026-05-05 22:40 | 36.40723 | 28.09233 | 31 ft | 125 kts | 251° |
| 2026-05-05 22:41 | 36.40563 | 28.08712 | 29 ft | 69 kts | 249° |
| 2026-05-05 22:41 | 36.40468 | 28.08378 | 28 ft | 34 kts | 250° |
| 2026-05-05 22:41 | 36.40382 | 28.08113 | 28 ft | 32 kts | 236° |
| 2026-05-05 22:41 | 36.40236 | 28.07908 | 28 ft | 28 kts | 220° |
| 2026-05-05 22:42 | 36.40184 | 28.07861 | 28 ft | 0 kts | 203° |
| 2026-05-05 22:43 | 36.40152 | 28.07859 | 28 ft | 5 kts | 149° |
| 2026-05-05 22:43 | 36.40155 | 28.07894 | 28 ft | 8 kts | 89° |
| 2026-05-05 22:43 | 36.40173 | 28.07997 | 28 ft | 17 kts | 71° |
| 2026-05-05 22:43 | 36.40224 | 28.08163 | 28 ft | 24 kts | 69° |
| 2026-05-05 22:44 | 36.40282 | 28.08367 | 28 ft | 25 kts | 70° |
| 2026-05-05 22:44 | 36.40342 | 28.08575 | 28 ft | 26 kts | 70° |
| 2026-05-05 22:44 | 36.40399 | 28.08784 | 28 ft | 26 kts | 81° |
| 2026-05-05 22:44 | 36.40399 | 28.08978 | 28 ft | 20 kts | 84° |
| 2026-05-05 22:45 | 36.40422 | 28.09093 | 28 ft | 7 kts | 94° |
| 2026-05-05 22:45 | 36.40402 | 28.09120 | 28 ft | 3 kts | 156° |
| 2026-05-05 22:45 | 36.40386 | 28.09129 | 28 ft | 2 kts | 160° |
| 2026-05-05 22:45 | 36.40366 | 28.09137 | 28 ft | 0 kts | 160° |